sensor_id;sensor_type;location;lat;lon;timestamp;temperature;humidity
25923;DHT22;13725;51.170;4.442;2023-04-01T00:00:16;10.20;99.90
25923;DHT22;13725;51.170;4.442;2023-04-01T00:02:42;10.20;99.90
25923;DHT22;13725;51.170;4.442;2023-04-01T00:05:09;10.30;99.90
25923;DHT22;13725;51.170;4.442;2023-04-01T00:07:36;10.40;99.90
25923;DHT22;13725;51.170;4.442;2023-04-01T00:10:04;10.30;99.90
25923;DHT22;13725;51.170;4.442;2023-04-01T00:12:29;10.30;99.90
25923;DHT22;13725;51.170;4.442;2023-04-01T00:14:55;10.30;99.90
25923;DHT22;13725;51.170;4.442;2023-04-01T00:17:21;10.20;99.90
25923;DHT22;13725;51.170;4.442;2023-04-01T00:19:47;10.30;99.90
25923;DHT22;13725;51.170;4.442;2023-04-01T00:22:13;10.20;99.90
25923;DHT22;13725;51.170;4.442;2023-04-01T00:24:39;10.30;99.90
25923;DHT22;13725;51.170;4.442;2023-04-01T00:27:04;10.20;99.90
25923;DHT22;13725;51.170;4.442;2023-04-01T00:29:31;10.30;99.90
25923;DHT22;13725;51.170;4.442;2023-04-01T00:31:57;10.30;99.90
25923;DHT22;13725;51.170;4.442;2023-04-01T00:34:23;10.30;99.90
25923;DHT22;13725;51.170;4.442;2023-04-01T00:36:50;10.30;99.90
25923;DHT22;13725;51.170;4.442;2023-04-01T00:39:16;10.30;99.90
25923;DHT22;13725;51.170;4.442;2023-04-01T00:41:42;10.20;99.90
25923;DHT22;13725;51.170;4.442;2023-04-01T00:44:17;10.20;99.90
25923;DHT22;13725;51.170;4.442;2023-04-01T00:46:43;10.20;99.90
25923;DHT22;13725;51.170;4.442;2023-04-01T00:49:09;10.20;99.90
25923;DHT22;13725;51.170;4.442;2023-04-01T00:51:36;10.10;99.90
25923;DHT22;13725;51.170;4.442;2023-04-01T00:54:04;10.20;99.90
25923;DHT22;13725;51.170;4.442;2023-04-01T00:56:35;10.10;99.90
25923;DHT22;13725;51.170;4.442;2023-04-01T00:59:15;10.20;99.90
25923;DHT22;13725;51.170;4.442;2023-04-01T01:01:41;10.20;99.90
25923;DHT22;13725;51.170;4.442;2023-04-01T01:04:18;10.30;99.90
25923;DHT22;13725;51.170;4.442;2023-04-01T01:09:56;10.20;99.90
25923;DHT22;13725;51.170;4.442;2023-04-01T01:32:11;10.20;99.90
25923;DHT22;13725;51.170;4.442;2023-04-01T01:34:46;10.30;99.90
25923;DHT22;13725;51.170;4.442;2023-04-01T01:37:15;10.30;99.90
25923;DHT22;13725;51.170;4.442;2023-04-01T01:39:44;10.30;99.90
25923;DHT22;13725;51.170;4.442;2023-04-01T01:42:13;10.20;99.90
25923;DHT22;13725;51.170;4.442;2023-04-01T01:44:42;10.20;99.90
25923;DHT22;13725;51.170;4.442;2023-04-01T01:47:10;10.10;99.90
25923;DHT22;13725;51.170;4.442;2023-04-01T01:49:38;10.10;99.90
25923;DHT22;13725;51.170;4.442;2023-04-01T01:52:04;10.10;99.90
25923;DHT22;13725;51.170;4.442;2023-04-01T01:54:30;10.10;99.90
25923;DHT22;13725;51.170;4.442;2023-04-01T01:57:04;10.20;99.90
25923;DHT22;13725;51.170;4.442;2023-04-01T01:59:33;10.10;99.90
25923;DHT22;13725;51.170;4.442;2023-04-01T02:02:00;10.10;99.90
25923;DHT22;13725;51.170;4.442;2023-04-01T02:04:37;10.10;99.90
25923;DHT22;13725;51.170;4.442;2023-04-01T02:07:08;10.10;99.90
25923;DHT22;13725;51.170;4.442;2023-04-01T02:09:37;10.20;99.90
25923;DHT22;13725;51.170;4.442;2023-04-01T02:12:08;10.20;99.90
25923;DHT22;13725;51.170;4.442;2023-04-01T02:14:52;10.30;99.90
25923;DHT22;13725;51.170;4.442;2023-04-01T02:17:21;10.20;99.90
25923;DHT22;13725;51.170;4.442;2023-04-01T02:19:56;10.20;99.90
25923;DHT22;13725;51.170;4.442;2023-04-01T02:22:34;10.20;99.90
25923;DHT22;13725;51.170;4.442;2023-04-01T02:25:07;10.10;99.90
25923;DHT22;13725;51.170;4.442;2023-04-01T02:27:33;10.20;99.90
25923;DHT22;13725;51.170;4.442;2023-04-01T02:29:59;10.10;99.90
25923;DHT22;13725;51.170;4.442;2023-04-01T02:32:28;10.10;99.90
25923;DHT22;13725;51.170;4.442;2023-04-01T02:34:56;10.00;99.90
25923;DHT22;13725;51.170;4.442;2023-04-01T02:37:22;10.00;99.90
25923;DHT22;13725;51.170;4.442;2023-04-01T02:39:48;10.10;99.90
25923;DHT22;13725;51.170;4.442;2023-04-01T02:42:14;10.10;99.90
25923;DHT22;13725;51.170;4.442;2023-04-01T02:44:40;10.10;99.90
25923;DHT22;13725;51.170;4.442;2023-04-01T02:47:05;10.00;99.90
25923;DHT22;13725;51.170;4.442;2023-04-01T02:49:31;10.00;99.90
25923;DHT22;13725;51.170;4.442;2023-04-01T02:51:56;9.90;99.90
25923;DHT22;13725;51.170;4.442;2023-04-01T02:54:22;10.00;99.90
25923;DHT22;13725;51.170;4.442;2023-04-01T02:56:48;10.10;99.90
25923;DHT22;13725;51.170;4.442;2023-04-01T02:59:13;10.10;99.90
25923;DHT22;13725;51.170;4.442;2023-04-01T03:01:39;9.90;99.90
25923;DHT22;13725;51.170;4.442;2023-04-01T03:04:05;9.80;99.90
25923;DHT22;13725;51.170;4.442;2023-04-01T03:06:31;9.90;99.90
25923;DHT22;13725;51.170;4.442;2023-04-01T03:08:56;10.00;99.90
25923;DHT22;13725;51.170;4.442;2023-04-01T03:11:22;10.00;99.90
25923;DHT22;13725;51.170;4.442;2023-04-01T03:13:48;10.00;99.90
25923;DHT22;13725;51.170;4.442;2023-04-01T03:16:14;10.00;99.90
25923;DHT22;13725;51.170;4.442;2023-04-01T03:18:40;10.00;99.90
25923;DHT22;13725;51.170;4.442;2023-04-01T03:21:21;10.00;99.90
25923;DHT22;13725;51.170;4.442;2023-04-01T03:23:47;9.90;99.90
25923;DHT22;13725;51.170;4.442;2023-04-01T03:26:13;9.80;99.90
25923;DHT22;13725;51.170;4.442;2023-04-01T03:28:39;9.80;99.90
25923;DHT22;13725;51.170;4.442;2023-04-01T03:31:05;9.80;99.90
25923;DHT22;13725;51.170;4.442;2023-04-01T03:33:38;9.80;99.90
25923;DHT22;13725;51.170;4.442;2023-04-01T03:36:03;9.70;99.90
25923;DHT22;13725;51.170;4.442;2023-04-01T03:38:35;9.80;99.90
25923;DHT22;13725;51.170;4.442;2023-04-01T03:41:01;9.70;99.90
25923;DHT22;13725;51.170;4.442;2023-04-01T03:43:27;9.80;99.90
25923;DHT22;13725;51.170;4.442;2023-04-01T03:45:53;9.80;99.90
25923;DHT22;13725;51.170;4.442;2023-04-01T03:48:20;9.80;99.90
25923;DHT22;13725;51.170;4.442;2023-04-01T03:50:46;9.80;99.90
25923;DHT22;13725;51.170;4.442;2023-04-01T03:53:12;9.90;99.90
25923;DHT22;13725;51.170;4.442;2023-04-01T03:55:41;9.80;99.90
25923;DHT22;13725;51.170;4.442;2023-04-01T03:58:07;9.80;99.90
25923;DHT22;13725;51.170;4.442;2023-04-01T04:00:33;9.80;99.90
25923;DHT22;13725;51.170;4.442;2023-04-01T04:02:59;9.80;99.90
25923;DHT22;13725;51.170;4.442;2023-04-01T04:05:30;9.90;99.90
25923;DHT22;13725;51.170;4.442;2023-04-01T04:07:56;9.80;99.90
25923;DHT22;13725;51.170;4.442;2023-04-01T04:10:22;9.70;99.90
25923;DHT22;13725;51.170;4.442;2023-04-01T04:12:51;9.70;99.90
25923;DHT22;13725;51.170;4.442;2023-04-01T04:15:18;9.80;99.90
25923;DHT22;13725;51.170;4.442;2023-04-01T04:17:45;9.70;99.90
25923;DHT22;13725;51.170;4.442;2023-04-01T04:20:11;9.70;99.90
25923;DHT22;13725;51.170;4.442;2023-04-01T04:22:37;9.70;99.90
25923;DHT22;13725;51.170;4.442;2023-04-01T04:25:05;9.70;99.90
25923;DHT22;13725;51.170;4.442;2023-04-01T04:27:32;9.60;99.90
25923;DHT22;13725;51.170;4.442;2023-04-01T04:30:06;9.70;99.90
25923;DHT22;13725;51.170;4.442;2023-04-01T04:32:33;9.70;99.90
25923;DHT22;13725;51.170;4.442;2023-04-01T04:34:59;9.70;99.90
25923;DHT22;13725;51.170;4.442;2023-04-01T04:37:24;9.70;99.90
25923;DHT22;13725;51.170;4.442;2023-04-01T04:39:51;9.60;99.90
25923;DHT22;13725;51.170;4.442;2023-04-01T04:42:17;9.70;99.90
25923;DHT22;13725;51.170;4.442;2023-04-01T04:44:43;9.70;99.90
25923;DHT22;13725;51.170;4.442;2023-04-01T04:47:10;9.70;99.90
25923;DHT22;13725;51.170;4.442;2023-04-01T04:49:35;9.70;99.90
25923;DHT22;13725;51.170;4.442;2023-04-01T04:52:05;9.70;99.90
25923;DHT22;13725;51.170;4.442;2023-04-01T04:54:31;9.70;99.90
25923;DHT22;13725;51.170;4.442;2023-04-01T04:56:59;9.60;99.90
25923;DHT22;13725;51.170;4.442;2023-04-01T04:59:26;9.70;99.90
25923;DHT22;13725;51.170;4.442;2023-04-01T05:02:06;9.70;99.90
25923;DHT22;13725;51.170;4.442;2023-04-01T05:04:36;9.70;99.90
25923;DHT22;13725;51.170;4.442;2023-04-01T05:07:02;9.70;99.90
25923;DHT22;13725;51.170;4.442;2023-04-01T05:09:28;9.60;99.90
25923;DHT22;13725;51.170;4.442;2023-04-01T05:11:54;9.70;99.90
25923;DHT22;13725;51.170;4.442;2023-04-01T05:14:21;9.70;99.90
25923;DHT22;13725;51.170;4.442;2023-04-01T05:16:59;9.70;99.90
25923;DHT22;13725;51.170;4.442;2023-04-01T05:19:25;9.70;99.90
25923;DHT22;13725;51.170;4.442;2023-04-01T05:21:50;9.70;99.90
25923;DHT22;13725;51.170;4.442;2023-04-01T05:24:18;9.70;99.90
25923;DHT22;13725;51.170;4.442;2023-04-01T05:26:45;9.70;99.90
25923;DHT22;13725;51.170;4.442;2023-04-01T05:29:11;9.70;99.90
25923;DHT22;13725;51.170;4.442;2023-04-01T05:31:37;9.80;99.90
25923;DHT22;13725;51.170;4.442;2023-04-01T05:34:04;9.80;99.90
25923;DHT22;13725;51.170;4.442;2023-04-01T05:36:29;9.70;99.90
25923;DHT22;13725;51.170;4.442;2023-04-01T05:38:55;9.70;99.90
25923;DHT22;13725;51.170;4.442;2023-04-01T05:41:22;9.50;99.90
25923;DHT22;13725;51.170;4.442;2023-04-01T05:43:47;9.50;99.90
25923;DHT22;13725;51.170;4.442;2023-04-01T05:46:32;9.60;99.90
25923;DHT22;13725;51.170;4.442;2023-04-01T05:49:23;9.60;99.90
25923;DHT22;13725;51.170;4.442;2023-04-01T05:51:50;9.60;99.90
25923;DHT22;13725;51.170;4.442;2023-04-01T05:54:17;9.60;99.90
25923;DHT22;13725;51.170;4.442;2023-04-01T05:56:44;9.70;99.90
25923;DHT22;13725;51.170;4.442;2023-04-01T05:59:10;9.70;99.90
25923;DHT22;13725;51.170;4.442;2023-04-01T06:01:36;9.80;99.90
25923;DHT22;13725;51.170;4.442;2023-04-01T06:04:02;9.70;99.90
25923;DHT22;13725;51.170;4.442;2023-04-01T06:06:30;9.80;99.90
25923;DHT22;13725;51.170;4.442;2023-04-01T06:09:14;10.00;99.90
25923;DHT22;13725;51.170;4.442;2023-04-01T06:12:08;9.80;99.90
25923;DHT22;13725;51.170;4.442;2023-04-01T06:17:44;9.80;99.90
25923;DHT22;13725;51.170;4.442;2023-04-01T06:31:09;9.90;99.90
25923;DHT22;13725;51.170;4.442;2023-04-01T06:36:31;10.00;99.90
25923;DHT22;13725;51.170;4.442;2023-04-01T06:44:53;9.80;99.90
25923;DHT22;13725;51.170;4.442;2023-04-01T06:47:42;9.70;99.90
25923;DHT22;13725;51.170;4.442;2023-04-01T06:51:06;9.80;99.90
25923;DHT22;13725;51.170;4.442;2023-04-01T06:54:10;9.90;99.90
25923;DHT22;13725;51.170;4.442;2023-04-01T06:59:55;10.00;99.90
25923;DHT22;13725;51.170;4.442;2023-04-01T07:02:41;10.00;99.90
25923;DHT22;13725;51.170;4.442;2023-04-01T07:05:11;9.90;99.90
25923;DHT22;13725;51.170;4.442;2023-04-01T07:07:53;9.90;99.90
25923;DHT22;13725;51.170;4.442;2023-04-01T07:10:43;9.90;99.90
25923;DHT22;13725;51.170;4.442;2023-04-01T07:13:55;9.90;99.90
25923;DHT22;13725;51.170;4.442;2023-04-01T07:16:25;10.00;99.90
25923;DHT22;13725;51.170;4.442;2023-04-01T07:19:05;9.90;99.90
25923;DHT22;13725;51.170;4.442;2023-04-01T07:21:52;9.90;99.90
25923;DHT22;13725;51.170;4.442;2023-04-01T07:24:34;9.90;99.90
25923;DHT22;13725;51.170;4.442;2023-04-01T07:27:09;9.90;99.90
25923;DHT22;13725;51.170;4.442;2023-04-01T07:29:36;9.90;99.90
25923;DHT22;13725;51.170;4.442;2023-04-01T07:32:27;10.00;99.90
25923;DHT22;13725;51.170;4.442;2023-04-01T07:35:30;10.00;99.90
25923;DHT22;13725;51.170;4.442;2023-04-01T07:43:44;10.10;99.90
25923;DHT22;13725;51.170;4.442;2023-04-01T07:49:17;10.10;99.90
25923;DHT22;13725;51.170;4.442;2023-04-01T07:51:59;10.10;99.90
25923;DHT22;13725;51.170;4.442;2023-04-01T07:54:35;10.10;99.90
25923;DHT22;13725;51.170;4.442;2023-04-01T07:57:12;10.10;99.90
25923;DHT22;13725;51.170;4.442;2023-04-01T08:03:17;10.20;99.90
25923;DHT22;13725;51.170;4.442;2023-04-01T08:06:11;10.30;99.90
25923;DHT22;13725;51.170;4.442;2023-04-01T08:08:56;10.60;99.90
25923;DHT22;13725;51.170;4.442;2023-04-01T08:14:56;10.50;99.90
25923;DHT22;13725;51.170;4.442;2023-04-01T08:20:31;10.30;99.90
25923;DHT22;13725;51.170;4.442;2023-04-01T08:23:10;10.40;99.90
25923;DHT22;13725;51.170;4.442;2023-04-01T08:26:04;10.40;99.90
25923;DHT22;13725;51.170;4.442;2023-04-01T08:28:43;10.40;99.90
25923;DHT22;13725;51.170;4.442;2023-04-01T08:31:12;10.50;99.90
25923;DHT22;13725;51.170;4.442;2023-04-01T08:33:44;10.50;99.90
25923;DHT22;13725;51.170;4.442;2023-04-01T08:36:28;10.50;99.90
25923;DHT22;13725;51.170;4.442;2023-04-01T08:39:16;10.60;99.90
25923;DHT22;13725;51.170;4.442;2023-04-01T08:42:14;10.60;99.90
25923;DHT22;13725;51.170;4.442;2023-04-01T08:53:50;10.70;99.90
25923;DHT22;13725;51.170;4.442;2023-04-01T09:10:34;10.70;99.90
25923;DHT22;13725;51.170;4.442;2023-04-01T09:25:12;10.70;99.90
25923;DHT22;13725;51.170;4.442;2023-04-01T09:30:40;10.50;99.90
25923;DHT22;13725;51.170;4.442;2023-04-01T09:36:44;10.70;99.90
25923;DHT22;13725;51.170;4.442;2023-04-01T09:51:13;11.20;99.90
25923;DHT22;13725;51.170;4.442;2023-04-01T10:05:56;11.10;99.90
25923;DHT22;13725;51.170;4.442;2023-04-01T10:17:51;11.40;99.90
25923;DHT22;13725;51.170;4.442;2023-04-01T10:25:53;11.20;99.90
25923;DHT22;13725;51.170;4.442;2023-04-01T10:31:47;11.00;99.90
25923;DHT22;13725;51.170;4.442;2023-04-01T10:40:36;11.10;99.90
25923;DHT22;13725;51.170;4.442;2023-04-01T10:58:29;11.50;99.90
25923;DHT22;13725;51.170;4.442;2023-04-01T11:01:36;11.60;99.90
25923;DHT22;13725;51.170;4.442;2023-04-01T11:25:02;11.70;99.90
25923;DHT22;13725;51.170;4.442;2023-04-01T11:33:57;11.50;99.90
25923;DHT22;13725;51.170;4.442;2023-04-01T11:36:43;11.40;99.90
25923;DHT22;13725;51.170;4.442;2023-04-01T11:39:22;11.20;99.90
25923;DHT22;13725;51.170;4.442;2023-04-01T11:42:28;11.30;99.90
25923;DHT22;13725;51.170;4.442;2023-04-01T11:45:31;11.40;99.90
25923;DHT22;13725;51.170;4.442;2023-04-01T11:48:07;11.30;99.90
25923;DHT22;13725;51.170;4.442;2023-04-01T11:56:18;11.70;99.90
25923;DHT22;13725;51.170;4.442;2023-04-01T12:10:19;12.50;99.90
25923;DHT22;13725;51.170;4.442;2023-04-01T12:13:04;12.50;99.90
25923;DHT22;13725;51.170;4.442;2023-04-01T12:15:38;12.50;99.90
25923;DHT22;13725;51.170;4.442;2023-04-01T12:21:42;12.80;99.90
25923;DHT22;13725;51.170;4.442;2023-04-01T12:32:46;12.90;99.90
25923;DHT22;13725;51.170;4.442;2023-04-01T12:38:46;13.00;99.90
25923;DHT22;13725;51.170;4.442;2023-04-01T12:44:23;13.30;99.90
25923;DHT22;13725;51.170;4.442;2023-04-01T13:03:12;12.50;99.90
25923;DHT22;13725;51.170;4.442;2023-04-01T13:11:43;12.40;99.90
25923;DHT22;13725;51.170;4.442;2023-04-01T13:17:16;12.50;99.90
25923;DHT22;13725;51.170;4.442;2023-04-01T13:19:55;12.30;99.90
25923;DHT22;13725;51.170;4.442;2023-04-01T13:25:24;12.00;99.90
25923;DHT22;13725;51.170;4.442;2023-04-01T13:28:09;12.30;99.90
25923;DHT22;13725;51.170;4.442;2023-04-01T13:33:19;12.20;99.90
25923;DHT22;13725;51.170;4.442;2023-04-01T13:38:40;12.10;99.90
25923;DHT22;13725;51.170;4.442;2023-04-01T14:04:59;12.60;99.90
25923;DHT22;13725;51.170;4.442;2023-04-01T14:10:48;12.70;99.90
25923;DHT22;13725;51.170;4.442;2023-04-01T14:13:34;12.70;99.90
25923;DHT22;13725;51.170;4.442;2023-04-01T14:33:22;12.90;99.90
25923;DHT22;13725;51.170;4.442;2023-04-01T14:44:55;12.50;99.90
25923;DHT22;13725;51.170;4.442;2023-04-01T14:47:53;12.50;99.90
25923;DHT22;13725;51.170;4.442;2023-04-01T14:50:25;12.50;99.90
25923;DHT22;13725;51.170;4.442;2023-04-01T14:55:38;12.60;99.90
25923;DHT22;13725;51.170;4.442;2023-04-01T14:58:13;12.50;99.90
25923;DHT22;13725;51.170;4.442;2023-04-01T15:03:26;12.40;99.90
25923;DHT22;13725;51.170;4.442;2023-04-01T15:09:22;12.00;99.90
25923;DHT22;13725;51.170;4.442;2023-04-01T15:17:36;12.00;99.90
25923;DHT22;13725;51.170;4.442;2023-04-01T15:20:16;11.80;99.90
25923;DHT22;13725;51.170;4.442;2023-04-01T15:22:53;11.80;99.90
25923;DHT22;13725;51.170;4.442;2023-04-01T15:34:23;11.40;99.90
25923;DHT22;13725;51.170;4.442;2023-04-01T15:37:05;11.30;99.90
25923;DHT22;13725;51.170;4.442;2023-04-01T15:42:45;11.10;99.90
25923;DHT22;13725;51.170;4.442;2023-04-01T15:45:37;11.00;99.90
25923;DHT22;13725;51.170;4.442;2023-04-01T15:48:16;11.00;99.90
25923;DHT22;13725;51.170;4.442;2023-04-01T15:50:48;11.00;99.90
25923;DHT22;13725;51.170;4.442;2023-04-01T15:53:43;11.00;99.90
25923;DHT22;13725;51.170;4.442;2023-04-01T15:56:25;11.00;99.90
25923;DHT22;13725;51.170;4.442;2023-04-01T16:15:26;10.80;99.90
25923;DHT22;13725;51.170;4.442;2023-04-01T16:23:40;10.80;99.90
25923;DHT22;13725;51.170;4.442;2023-04-01T16:26:39;10.80;99.90
25923;DHT22;13725;51.170;4.442;2023-04-01T16:29:17;10.70;99.90
25923;DHT22;13725;51.170;4.442;2023-04-01T16:34:35;10.60;99.90
25923;DHT22;13725;51.170;4.442;2023-04-01T16:37:17;10.70;99.90
25923;DHT22;13725;51.170;4.442;2023-04-01T16:42:44;10.70;99.90
25923;DHT22;13725;51.170;4.442;2023-04-01T16:46:12;10.70;99.90
25923;DHT22;13725;51.170;4.442;2023-04-01T16:51:13;10.70;99.90
25923;DHT22;13725;51.170;4.442;2023-04-01T16:53:47;10.70;99.90
25923;DHT22;13725;51.170;4.442;2023-04-01T17:01:24;10.60;99.90
25923;DHT22;13725;51.170;4.442;2023-04-01T17:03:57;10.60;99.90
25923;DHT22;13725;51.170;4.442;2023-04-01T17:06:44;10.70;99.90
25923;DHT22;13725;51.170;4.442;2023-04-01T17:20:09;10.80;99.90
25923;DHT22;13725;51.170;4.442;2023-04-01T17:27:50;10.50;99.90
25923;DHT22;13725;51.170;4.442;2023-04-01T17:30:45;10.30;99.90
25923;DHT22;13725;51.170;4.442;2023-04-01T17:41:51;10.20;99.90
25923;DHT22;13725;51.170;4.442;2023-04-01T17:52:42;10.00;99.90
25923;DHT22;13725;51.170;4.442;2023-04-01T17:58:25;10.10;99.90
25923;DHT22;13725;51.170;4.442;2023-04-01T18:09:26;10.00;99.90
25923;DHT22;13725;51.170;4.442;2023-04-01T18:12:05;10.00;99.90
25923;DHT22;13725;51.170;4.442;2023-04-01T18:17:25;10.10;99.90
25923;DHT22;13725;51.170;4.442;2023-04-01T18:22:43;10.10;99.90
25923;DHT22;13725;51.170;4.442;2023-04-01T18:25:16;10.10;99.90
25923;DHT22;13725;51.170;4.442;2023-04-01T18:27:47;10.10;99.90
25923;DHT22;13725;51.170;4.442;2023-04-01T18:30:18;10.10;99.90
25923;DHT22;13725;51.170;4.442;2023-04-01T18:32:48;10.10;99.90
25923;DHT22;13725;51.170;4.442;2023-04-01T18:40:38;10.10;99.90
25923;DHT22;13725;51.170;4.442;2023-04-01T18:49:25;10.20;99.90
25923;DHT22;13725;51.170;4.442;2023-04-01T18:52:02;10.10;99.90
25923;DHT22;13725;51.170;4.442;2023-04-01T18:54:41;10.20;99.90
25923;DHT22;13725;51.170;4.442;2023-04-01T18:57:14;10.10;99.90
25923;DHT22;13725;51.170;4.442;2023-04-01T19:05:11;10.10;99.90
25923;DHT22;13725;51.170;4.442;2023-04-01T19:07:55;10.20;99.90
25923;DHT22;13725;51.170;4.442;2023-04-01T19:13:01;10.20;99.90
25923;DHT22;13725;51.170;4.442;2023-04-01T19:18:58;10.20;99.90
25923;DHT22;13725;51.170;4.442;2023-04-01T19:21:33;10.30;99.90
25923;DHT22;13725;51.170;4.442;2023-04-01T19:24:07;10.30;99.90
25923;DHT22;13725;51.170;4.442;2023-04-01T19:26:42;10.30;99.90
25923;DHT22;13725;51.170;4.442;2023-04-01T19:32:29;10.40;99.90
25923;DHT22;13725;51.170;4.442;2023-04-01T19:35:13;10.40;99.90
25923;DHT22;13725;51.170;4.442;2023-04-01T19:43:39;10.30;99.90
25923;DHT22;13725;51.170;4.442;2023-04-01T19:51:39;10.50;99.90
25923;DHT22;13725;51.170;4.442;2023-04-01T19:54:24;10.50;99.90
25923;DHT22;13725;51.170;4.442;2023-04-01T19:59:34;10.50;99.90
25923;DHT22;13725;51.170;4.442;2023-04-01T20:04:43;10.50;99.90
25923;DHT22;13725;51.170;4.442;2023-04-01T20:17:59;10.50;99.90
25923;DHT22;13725;51.170;4.442;2023-04-01T20:20:28;10.50;99.90
25923;DHT22;13725;51.170;4.442;2023-04-01T20:25:47;10.40;99.90
25923;DHT22;13725;51.170;4.442;2023-04-01T20:30:55;10.40;99.90
25923;DHT22;13725;51.170;4.442;2023-04-01T20:33:52;10.20;99.90
25923;DHT22;13725;51.170;4.442;2023-04-01T20:39:03;10.40;99.90
25923;DHT22;13725;51.170;4.442;2023-04-01T20:41:40;10.40;99.90
25923;DHT22;13725;51.170;4.442;2023-04-01T20:44:13;10.50;99.90
25923;DHT22;13725;51.170;4.442;2023-04-01T20:46:48;10.50;99.90
25923;DHT22;13725;51.170;4.442;2023-04-01T20:49:48;10.40;99.90
25923;DHT22;13725;51.170;4.442;2023-04-01T21:00:44;10.40;99.90
25923;DHT22;13725;51.170;4.442;2023-04-01T21:16:49;10.10;99.90
25923;DHT22;13725;51.170;4.442;2023-04-01T21:25:03;10.10;99.90
25923;DHT22;13725;51.170;4.442;2023-04-01T21:28:00;10.10;99.90
25923;DHT22;13725;51.170;4.442;2023-04-01T21:33:49;10.10;99.90
25923;DHT22;13725;51.170;4.442;2023-04-01T21:41:49;10.00;99.90
25923;DHT22;13725;51.170;4.442;2023-04-01T21:44:26;9.90;99.90
25923;DHT22;13725;51.170;4.442;2023-04-01T22:00:19;9.90;99.90
25923;DHT22;13725;51.170;4.442;2023-04-01T22:02:59;9.80;99.90
25923;DHT22;13725;51.170;4.442;2023-04-01T22:11:21;9.70;99.90
25923;DHT22;13725;51.170;4.442;2023-04-01T22:14:20;9.70;99.90
25923;DHT22;13725;51.170;4.442;2023-04-01T22:17:04;9.70;99.90
25923;DHT22;13725;51.170;4.442;2023-04-01T22:20:09;9.70;99.90
25923;DHT22;13725;51.170;4.442;2023-04-01T22:30:50;9.60;99.90
25923;DHT22;13725;51.170;4.442;2023-04-01T22:41:23;9.40;99.90
25923;DHT22;13725;51.170;4.442;2023-04-01T22:43:54;9.50;99.90
25923;DHT22;13725;51.170;4.442;2023-04-01T22:46:48;9.50;99.90
25923;DHT22;13725;51.170;4.442;2023-04-01T22:49:23;9.50;99.90
25923;DHT22;13725;51.170;4.442;2023-04-01T22:54:27;9.40;99.90
25923;DHT22;13725;51.170;4.442;2023-04-01T22:56:56;9.40;99.90
25923;DHT22;13725;51.170;4.442;2023-04-01T22:59:31;9.40;99.90
25923;DHT22;13725;51.170;4.442;2023-04-01T23:02:06;9.30;99.90
25923;DHT22;13725;51.170;4.442;2023-04-01T23:04:38;9.30;99.90
25923;DHT22;13725;51.170;4.442;2023-04-01T23:07:29;9.40;99.90
25923;DHT22;13725;51.170;4.442;2023-04-01T23:10:02;9.40;99.90
25923;DHT22;13725;51.170;4.442;2023-04-01T23:12:32;9.30;99.90
25923;DHT22;13725;51.170;4.442;2023-04-01T23:15:00;9.30;99.90
25923;DHT22;13725;51.170;4.442;2023-04-01T23:20:24;9.30;99.90
25923;DHT22;13725;51.170;4.442;2023-04-01T23:23:20;9.20;99.90
25923;DHT22;13725;51.170;4.442;2023-04-01T23:28:48;9.20;99.90
25923;DHT22;13725;51.170;4.442;2023-04-01T23:31:59;9.30;99.90
25923;DHT22;13725;51.170;4.442;2023-04-01T23:34:30;9.30;99.90
25923;DHT22;13725;51.170;4.442;2023-04-01T23:37:03;9.20;99.90
25923;DHT22;13725;51.170;4.442;2023-04-01T23:39:35;9.20;99.90
25923;DHT22;13725;51.170;4.442;2023-04-01T23:44:39;9.10;99.90
25923;DHT22;13725;51.170;4.442;2023-04-01T23:47:06;9.00;99.90
25923;DHT22;13725;51.170;4.442;2023-04-01T23:49:38;8.90;99.90
25923;DHT22;13725;51.170;4.442;2023-04-01T23:52:17;8.90;99.90
25923;DHT22;13725;51.170;4.442;2023-04-01T23:57:37;8.90;99.90
